Darlington, New Jersey
Current Conditions -  °F | °C
As of 6:51 AM on Friday 21 Nov 2014 (Local Time) from KTEB Reporting Station
Clear Clear  
Wind Chill: 17°   Ceiling: Unl
Heat Index: 27°   Visibility: 10mi
Dew Point:   Wind: 10mph
Humidity: 47%   Direction: 270°W
Pressure: 30.19"   Gusts: NA
Location:  41.0594°N, 74.1457°W
Report Text: KTEB 211151Z 27009KT 10SM CLR M03/M13 A3019 RMK AO2 SLP224 T10281128 11011 21028 53031
Loading
Personal Weather Stations






























Interactive Weather Map New forecast layout! Learn more

10-Day Weather Forecast

Advertisements
Track Severe Weather on mobile